createdAt,value
2022-12-14T00:01:45.041Z,99626.00
2022-12-14T00:04:18.804Z,99614.00
2022-12-14T00:06:46.079Z,99619.00
2022-12-14T00:09:13.203Z,99617.00
2022-12-14T00:11:40.254Z,99616.00
2022-12-14T00:14:07.655Z,99624.00
2022-12-14T00:16:35.307Z,99613.00
2022-12-14T00:19:03.126Z,99614.00
2022-12-14T00:21:30.484Z,99617.00
2022-12-14T00:23:59.524Z,99619.00
2022-12-14T00:26:32.036Z,99596.00
2022-12-14T00:29:01.537Z,99609.00
2022-12-14T00:31:29.780Z,99611.00
2022-12-14T00:33:56.732Z,99607.00
2022-12-14T00:36:24.375Z,99609.00
2022-12-14T00:38:51.437Z,99564.00
2022-12-14T00:41:18.471Z,99601.00
2022-12-14T00:43:45.432Z,99609.00
2022-12-14T00:46:17.023Z,99603.00
2022-12-14T00:48:44.305Z,99610.00
2022-12-14T00:51:11.277Z,99630.00
2022-12-14T00:53:38.182Z,99618.00
2022-12-14T00:56:07.835Z,99563.00
2022-12-14T00:58:35.483Z,99607.00
2022-12-14T01:01:06.932Z,99615.00
2022-12-14T01:03:34.964Z,99619.00
2022-12-14T01:06:02.929Z,99608.00
2022-12-14T01:08:35.494Z,99610.00
2022-12-14T01:11:10.513Z,99603.00
2022-12-14T01:13:38.566Z,99600.00
2022-12-14T01:16:12.688Z,99606.00
2022-12-14T01:18:42.708Z,99602.00
2022-12-14T01:21:20.220Z,99589.00
2022-12-14T01:23:51.555Z,99594.00
2022-12-14T01:26:19.590Z,99598.00
2022-12-14T01:28:48.013Z,99593.00
2022-12-14T01:31:19.182Z,99591.00
2022-12-14T01:33:46.708Z,99586.00
2022-12-14T01:36:23.512Z,99588.00
2022-12-14T01:38:56.649Z,99589.00
2022-12-14T01:41:27.684Z,99588.00
2022-12-14T01:56:57.347Z,99587.00
2022-12-14T01:59:46.794Z,99582.00
2022-12-14T02:02:18.812Z,99571.00
2022-12-14T02:04:57.426Z,99585.00
2022-12-14T02:07:28.368Z,99581.00
2022-12-14T02:10:01.614Z,99568.00
2022-12-14T02:12:43.852Z,99586.00
2022-12-14T02:15:12.987Z,99572.00
2022-12-14T02:17:43.463Z,99574.00
2022-12-14T02:20:12.479Z,99584.00
2022-12-14T02:23:33.760Z,99583.00
2022-12-14T02:26:31.075Z,99587.00
2022-12-14T02:29:28.799Z,99580.00
2022-12-14T02:32:09.948Z,99585.00
2022-12-14T02:34:42.633Z,99574.00
2022-12-14T02:37:24.131Z,99582.00
2022-12-14T02:40:24.839Z,99583.00
2022-12-14T02:43:07.372Z,99580.00
2022-12-14T02:45:46.940Z,99576.00
2022-12-14T02:48:20.419Z,99574.00
2022-12-14T02:51:15.635Z,99564.00
2022-12-14T02:54:02.411Z,99582.00
2022-12-14T02:56:44.634Z,99570.00
2022-12-14T02:59:12.199Z,99571.00
2022-12-14T03:01:41.681Z,99571.00
2022-12-14T03:04:14.721Z,99577.00
2022-12-14T03:06:57.895Z,99577.00
2022-12-14T03:09:29.917Z,99569.00
2022-12-14T03:12:05.751Z,99567.00
2022-12-14T03:14:42.753Z,99563.00
2022-12-14T03:17:32.972Z,99566.00
2022-12-14T03:20:18.759Z,99562.00
2022-12-14T03:22:59.080Z,99561.00
2022-12-14T03:25:56.536Z,99565.00
2022-12-14T03:28:48.695Z,99554.00
2022-12-14T03:31:39.987Z,99563.00
2022-12-14T03:34:14.037Z,99555.00
2022-12-14T03:36:49.460Z,99552.00
2022-12-14T03:39:28.268Z,99557.00
2022-12-14T03:42:27.956Z,99535.00
2022-12-14T03:45:12.406Z,99545.00
2022-12-14T03:48:14.928Z,99551.00
2022-12-14T03:51:28.774Z,99555.00
2022-12-14T03:54:52.364Z,99550.00
2022-12-14T03:57:34.382Z,99556.00
2022-12-14T04:00:10.811Z,99543.00
2022-12-14T04:03:11.981Z,99548.00
2022-12-14T04:06:21.592Z,99541.00
2022-12-14T04:09:04.078Z,99539.00
2022-12-14T04:11:58.505Z,99533.00
2022-12-14T04:14:53.287Z,99534.00
2022-12-14T04:17:49.560Z,99500.00
2022-12-14T04:20:43.007Z,99529.00
2022-12-14T04:23:44.158Z,99520.00
2022-12-14T04:26:19.270Z,99542.00
2022-12-14T04:29:25.412Z,99538.00
2022-12-14T04:32:20.624Z,99547.00
2022-12-14T04:35:00.367Z,99537.00
2022-12-14T04:37:30.247Z,99529.00
2022-12-14T04:40:05.342Z,99509.00
2022-12-14T04:42:41.633Z,99528.00
2022-12-14T04:45:17.262Z,99521.00
2022-12-14T04:47:56.094Z,99534.00
2022-12-14T04:50:35.552Z,99530.00
2022-12-14T04:53:21.152Z,99528.00
2022-12-14T04:56:12.081Z,99516.00
2022-12-14T04:58:41.559Z,99525.00
2022-12-14T05:02:32.088Z,99521.00
2022-12-14T05:05:10.600Z,99520.00
2022-12-14T05:07:43.210Z,99519.00
2022-12-14T05:10:30.560Z,99520.00
2022-12-14T05:13:03.577Z,99509.00
2022-12-14T05:15:43.709Z,99466.00
2022-12-14T05:18:11.484Z,99507.00
2022-12-14T05:20:38.504Z,99489.00
2022-12-14T05:23:05.444Z,99499.00
2022-12-14T05:25:32.407Z,99501.00
2022-12-14T05:27:59.437Z,99490.00
2022-12-14T05:30:26.623Z,99501.00
2022-12-14T05:32:53.877Z,99482.00
2022-12-14T05:35:21.052Z,99496.00
2022-12-14T05:37:49.336Z,99495.00
2022-12-14T05:40:17.107Z,99489.00
2022-12-14T05:42:46.127Z,99491.00
2022-12-14T05:45:15.484Z,99469.00
2022-12-14T05:47:42.472Z,99470.00
2022-12-14T05:50:09.798Z,99480.00
2022-12-14T05:52:36.735Z,99480.00
2022-12-14T05:55:04.939Z,99465.00
2022-12-14T05:57:32.255Z,99485.00
2022-12-14T06:00:00.300Z,99484.00
2022-12-14T06:02:27.461Z,99462.00
2022-12-14T06:04:54.476Z,99484.00
2022-12-14T06:07:26.033Z,99484.00
2022-12-14T06:09:54.833Z,99474.00
2022-12-14T06:12:21.860Z,99485.00
2022-12-14T06:14:48.743Z,99484.00
2022-12-14T06:17:15.705Z,99462.00
2022-12-14T06:19:43.237Z,99483.00
2022-12-14T06:22:17.153Z,99485.00
2022-12-14T06:24:44.115Z,99488.00
2022-12-14T06:27:10.999Z,99501.00
2022-12-14T06:29:37.931Z,99490.00
2022-12-14T06:32:05.226Z,99489.00
2022-12-14T06:34:36.876Z,99488.00
2022-12-14T06:37:06.245Z,99495.00
2022-12-14T06:39:33.324Z,99470.00
2022-12-14T06:42:00.224Z,99490.00
2022-12-14T06:44:29.825Z,99496.00
2022-12-14T06:46:57.375Z,99474.00
2022-12-14T06:49:24.511Z,99490.00
2022-12-14T06:51:51.622Z,99495.00
2022-12-14T06:54:19.943Z,99496.00
2022-12-14T06:56:48.196Z,99473.00
2022-12-14T06:59:17.253Z,99476.00
2022-12-14T07:01:45.897Z,99487.00
2022-12-14T07:04:18.748Z,99466.00
2022-12-14T07:06:45.652Z,99498.00
2022-12-14T07:09:14.454Z,99511.00
2022-12-14T07:11:42.040Z,99500.00
2022-12-14T07:14:16.594Z,99504.00
2022-12-14T07:16:47.766Z,99503.00
2022-12-14T07:19:15.674Z,99505.00
2022-12-14T07:21:42.591Z,99511.00
2022-12-14T07:24:09.527Z,99512.00
2022-12-14T07:26:37.413Z,99514.00
2022-12-14T07:29:04.388Z,99508.00
2022-12-14T07:31:31.346Z,99521.00
2022-12-14T07:34:00.301Z,99509.00
2022-12-14T07:36:29.801Z,99517.00
2022-12-14T07:38:57.429Z,99520.00
2022-12-14T07:41:31.088Z,99516.00
2022-12-14T07:44:00.981Z,99522.00
2022-12-14T07:46:32.138Z,99524.00
2022-12-14T07:49:00.753Z,99511.00
2022-12-14T07:51:38.040Z,99529.00
2022-12-14T07:54:06.813Z,99502.00
2022-12-14T07:56:38.606Z,99520.00
2022-12-14T07:59:08.564Z,99521.00
2022-12-14T08:01:37.679Z,99525.00
2022-12-14T08:04:15.715Z,99528.00
2022-12-14T08:06:43.665Z,99541.00
2022-12-14T08:09:11.975Z,99502.00
2022-12-14T08:11:40.135Z,99527.00
2022-12-14T08:14:13.596Z,99534.00
2022-12-14T08:16:40.613Z,99518.00
2022-12-14T08:19:07.625Z,99539.00
2022-12-14T08:21:34.566Z,99538.00
2022-12-14T08:24:01.520Z,99538.00
2022-12-14T08:26:34.891Z,99542.00
2022-12-14T08:29:02.892Z,99553.00
2022-12-14T08:31:30.139Z,99555.00
2022-12-14T08:34:00.390Z,99576.00
2022-12-14T08:36:32.638Z,99569.00
2022-12-14T08:39:04.436Z,99570.00
2022-12-14T08:41:32.045Z,99572.00
2022-12-14T08:44:01.865Z,99572.00
2022-12-14T08:46:31.545Z,99560.00
2022-12-14T08:48:58.903Z,99542.00
2022-12-14T08:51:27.767Z,99533.00
2022-12-14T08:53:55.896Z,99562.00
2022-12-14T08:56:28.517Z,99555.00
2022-12-14T08:58:56.815Z,99553.00
2022-12-14T09:01:38.210Z,99548.00
2022-12-14T09:04:08.581Z,99546.00
2022-12-14T09:06:39.126Z,99552.00
2022-12-14T09:09:15.504Z,99543.00
2022-12-14T09:11:44.797Z,99548.00
2022-12-14T09:14:12.203Z,99535.00
2022-12-14T09:16:40.350Z,99534.00
2022-12-14T09:19:07.577Z,99529.00
2022-12-14T09:21:34.770Z,99530.00
2022-12-14T09:24:01.821Z,99526.00
2022-12-14T09:26:29.771Z,99526.00
2022-12-14T09:28:58.130Z,99514.00
2022-12-14T09:31:27.817Z,99516.00
2022-12-14T09:33:55.439Z,99508.00
2022-12-14T09:36:28.657Z,99513.00
2022-12-14T09:38:57.719Z,99496.00
2022-12-14T09:41:34.777Z,99522.00
2022-12-14T09:44:20.487Z,99505.00
2022-12-14T09:47:12.106Z,99513.00
2022-12-14T09:49:48.155Z,99510.00
2022-12-14T09:52:26.345Z,99503.00
2022-12-14T09:54:55.482Z,99473.00
2022-12-14T09:57:38.069Z,99499.00
2022-12-14T10:00:21.256Z,99486.00
2022-12-14T10:03:07.516Z,99490.00
2022-12-14T10:06:13.761Z,99480.00
2022-12-14T10:09:10.902Z,99483.00
2022-12-14T10:12:21.285Z,99479.00
2022-12-14T10:15:11.969Z,99466.00
2022-12-14T10:18:00.630Z,99464.00
2022-12-14T10:20:50.012Z,99468.00
2022-12-14T10:23:23.425Z,99459.00
2022-12-14T10:25:57.351Z,99464.00
2022-12-14T10:29:01.254Z,99468.00
2022-12-14T10:32:12.632Z,99464.00
2022-12-14T10:34:43.654Z,99468.00
2022-12-14T10:37:24.375Z,99465.00
2022-12-14T10:40:33.017Z,99454.00
2022-12-14T10:43:29.978Z,99459.00
2022-12-14T10:46:50.834Z,99462.00
2022-12-14T10:49:36.714Z,99452.00
2022-12-14T10:52:18.624Z,99425.00
2022-12-14T10:54:58.911Z,99446.00
2022-12-14T10:57:27.415Z,99438.00
2022-12-14T11:00:08.286Z,99435.00
2022-12-14T11:02:43.249Z,99422.00
2022-12-14T11:05:37.215Z,99429.00
2022-12-14T11:08:08.602Z,99423.00
2022-12-14T11:10:39.560Z,99419.00
2022-12-14T11:13:21.005Z,99420.00
2022-12-14T11:15:52.908Z,99414.00
2022-12-14T11:18:20.000Z,99419.00
2022-12-14T11:20:56.829Z,99411.00
2022-12-14T11:23:47.151Z,99410.00
2022-12-14T11:26:36.808Z,99414.00
2022-12-14T11:29:16.351Z,99420.00
2022-12-14T11:31:50.094Z,99410.00
2022-12-14T11:34:39.018Z,99411.00
2022-12-14T11:37:26.251Z,99378.00
2022-12-14T11:40:03.963Z,99416.00
2022-12-14T11:42:31.404Z,99406.00
2022-12-14T11:45:27.025Z,99403.00
2022-12-14T11:48:15.578Z,99403.00
2022-12-14T11:50:45.859Z,99400.00
2022-12-14T11:53:17.133Z,99404.00
2022-12-14T11:55:59.834Z,99403.00
2022-12-14T11:58:33.886Z,99398.00
2022-12-14T12:01:19.105Z,99397.00
2022-12-14T12:03:54.606Z,99387.00
2022-12-14T12:06:26.055Z,99378.00
2022-12-14T12:09:00.485Z,99385.00
2022-12-14T12:11:34.787Z,99388.00
2022-12-14T12:14:33.658Z,99390.00
2022-12-14T12:17:00.806Z,99374.00
2022-12-14T12:19:38.581Z,99386.00
2022-12-14T12:22:10.996Z,99388.00
2022-12-14T12:25:24.339Z,99361.00
2022-12-14T12:28:00.169Z,99392.00
2022-12-14T12:30:33.157Z,99390.00
2022-12-14T12:33:19.428Z,99381.00
2022-12-14T12:49:00.832Z,99392.00
2022-12-14T12:51:54.221Z,99384.00
2022-12-14T12:54:32.346Z,99374.00
2022-12-14T12:57:02.182Z,99365.00
2022-12-14T12:59:46.575Z,99356.00
2022-12-14T13:02:35.879Z,99361.00
2022-12-14T13:05:44.665Z,99365.00
2022-12-14T13:08:07.553Z,99347.00
2022-12-14T13:11:09.056Z,99359.00
2022-12-14T13:13:35.521Z,99365.00
2022-12-14T13:16:36.852Z,99362.00
2022-12-14T13:22:24.667Z,99366.00
2022-12-14T13:24:58.879Z,99354.00
2022-12-14T13:27:54.066Z,99357.00
2022-12-14T13:31:04.049Z,99366.00
2022-12-14T13:34:18.591Z,99364.00
2022-12-14T13:37:11.853Z,99355.00
2022-12-14T13:40:15.828Z,99358.00
2022-12-14T13:42:51.943Z,99354.00
2022-12-14T13:45:23.756Z,99356.00
2022-12-14T13:47:55.522Z,99345.00
2022-12-14T13:50:39.701Z,99354.00
2022-12-14T13:53:17.500Z,99347.00
2022-12-14T13:55:53.468Z,99359.00
2022-12-14T13:58:23.858Z,99351.00
2022-12-14T14:01:03.723Z,99347.00
2022-12-14T14:03:37.272Z,99355.00
2022-12-14T14:06:18.132Z,99349.00
2022-12-14T14:08:53.022Z,99326.00
2022-12-14T14:11:38.686Z,99347.00
2022-12-14T14:14:52.515Z,99337.00
2022-12-14T14:17:25.450Z,99336.00
2022-12-14T14:19:57.968Z,99310.00
2022-12-14T14:22:30.549Z,99331.00
2022-12-14T14:25:02.177Z,99319.00
2022-12-14T14:27:50.918Z,99317.00
2022-12-14T14:30:36.579Z,99316.00
2022-12-14T14:33:45.427Z,99315.00
2022-12-14T14:36:33.741Z,99309.00
2022-12-14T14:39:31.393Z,99295.00
2022-12-14T14:41:56.532Z,99315.00
2022-12-14T14:44:56.800Z,99304.00
2022-12-14T14:47:38.008Z,99309.00
2022-12-14T14:50:14.112Z,99311.00
2022-12-14T14:52:46.149Z,99300.00
2022-12-14T14:58:36.065Z,99286.00
2022-12-14T15:01:27.562Z,99282.00
2022-12-14T15:04:23.751Z,99287.00
2022-12-14T15:06:58.622Z,99278.00
2022-12-14T15:09:40.050Z,99287.00
2022-12-14T15:12:44.228Z,99270.00
2022-12-14T15:15:46.113Z,99273.00
2022-12-14T15:18:32.885Z,99295.00
2022-12-14T15:21:12.978Z,99282.00
2022-12-14T15:23:50.188Z,99284.00
2022-12-14T15:26:28.830Z,99283.00
2022-12-14T15:29:00.454Z,99280.00
2022-12-14T15:31:33.468Z,99289.00
2022-12-14T15:34:02.629Z,99275.00
2022-12-14T15:36:40.137Z,99234.00
2022-12-14T15:39:07.383Z,99259.00
2022-12-14T15:41:34.578Z,99261.00
2022-12-14T15:44:01.603Z,99257.00
2022-12-14T15:46:35.727Z,99266.00
2022-12-14T15:49:11.023Z,99268.00
2022-12-14T15:51:42.358Z,99239.00
2022-12-14T15:54:19.829Z,99264.00
2022-12-14T15:56:56.322Z,99257.00
2022-12-14T15:59:32.424Z,99253.00
2022-12-14T16:02:31.282Z,99255.00
2022-12-14T16:05:03.357Z,99226.00
2022-12-14T16:07:39.260Z,99229.00
2022-12-14T16:10:28.872Z,99233.00
2022-12-14T16:13:06.541Z,99225.00
2022-12-14T16:15:33.908Z,99203.00
2022-12-14T16:18:03.445Z,99242.00
2022-12-14T16:20:36.540Z,99231.00
2022-12-14T16:23:28.468Z,99230.00
2022-12-14T16:26:26.565Z,99228.00
2022-12-14T16:29:20.605Z,99235.00
2022-12-14T16:31:47.983Z,99235.00
2022-12-14T16:34:20.461Z,99229.00
2022-12-14T16:37:22.736Z,99219.00
2022-12-14T16:39:45.834Z,99218.00
2022-12-14T16:42:24.836Z,99218.00
2022-12-14T16:44:56.281Z,99172.00
2022-12-14T16:47:48.639Z,99205.00
2022-12-14T16:50:55.889Z,99202.00
2022-12-14T16:53:38.427Z,99215.00
2022-12-14T17:09:44.190Z,99206.00
2022-12-14T17:12:16.049Z,99196.00
2022-12-14T17:14:49.268Z,99188.00
2022-12-14T17:17:32.051Z,99183.00
2022-12-14T17:19:59.388Z,99190.00
2022-12-14T17:22:31.673Z,99186.00
2022-12-14T17:25:00.535Z,99178.00
2022-12-14T17:27:28.429Z,99158.00
2022-12-14T17:29:57.327Z,99168.00
2022-12-14T17:32:30.979Z,99181.00
2022-12-14T17:34:59.525Z,99177.00
2022-12-14T17:37:34.114Z,99170.00
2022-12-14T17:40:04.384Z,99163.00
2022-12-14T17:42:31.537Z,99159.00
2022-12-14T17:45:00.289Z,99156.00
2022-12-14T17:47:27.361Z,99154.00
2022-12-14T17:49:55.572Z,99143.00
2022-12-14T17:52:31.988Z,99147.00
2022-12-14T17:54:59.751Z,99152.00
2022-12-14T17:57:27.484Z,99002.00
2022-12-14T18:00:14.474Z,99135.00
2022-12-14T18:02:42.924Z,99108.00
2022-12-14T18:05:23.698Z,99134.00
2022-12-14T18:07:50.762Z,99135.00
2022-12-14T18:10:18.545Z,99139.00
2022-12-14T18:12:46.672Z,99135.00
2022-12-14T18:15:49.688Z,99135.00
2022-12-14T18:18:22.592Z,99143.00
2022-12-14T18:20:57.229Z,99138.00
2022-12-14T18:23:24.682Z,99132.00
2022-12-14T18:25:55.075Z,99125.00
2022-12-14T18:28:23.148Z,99090.00
2022-12-14T18:30:58.250Z,99120.00
2022-12-14T18:33:27.942Z,99133.00
2022-12-14T18:35:57.497Z,99143.00
2022-12-14T18:38:26.448Z,99126.00
2022-12-14T18:40:58.814Z,99127.00
2022-12-14T18:43:29.119Z,99124.00
2022-12-14T18:45:57.006Z,99127.00
2022-12-14T18:48:25.412Z,99109.00
2022-12-14T18:50:55.144Z,99128.00
2022-12-14T18:53:25.776Z,99127.00
2022-12-14T18:55:53.714Z,99118.00
2022-12-14T18:58:28.548Z,99121.00
2022-12-14T19:01:00.357Z,99124.00
2022-12-14T19:03:31.985Z,99118.00
2022-12-14T19:09:02.115Z,99114.00
2022-12-14T19:11:38.956Z,99118.00
2022-12-14T19:14:06.966Z,99115.00
2022-12-14T19:16:34.445Z,99118.00
2022-12-14T19:19:02.025Z,99112.00
2022-12-14T19:21:31.478Z,99113.00
2022-12-14T19:23:59.926Z,99111.00
2022-12-14T19:26:28.753Z,99108.00
2022-12-14T19:28:59.641Z,99116.00
2022-12-14T19:31:26.822Z,99084.00
2022-12-14T19:33:54.003Z,99117.00
2022-12-14T19:36:21.007Z,99124.00
2022-12-14T19:38:49.380Z,99114.00
2022-12-14T19:41:20.855Z,99104.00
2022-12-14T19:43:48.390Z,99103.00
2022-12-14T19:46:17.642Z,99105.00
2022-12-14T19:48:44.993Z,99096.00
2022-12-14T19:51:13.628Z,99071.00
2022-12-14T19:53:44.097Z,99110.00
2022-12-14T19:56:15.022Z,99109.00
2022-12-14T19:58:42.073Z,99103.00
2022-12-14T20:01:16.511Z,99096.00
2022-12-14T20:03:44.111Z,99098.00
2022-12-14T20:06:11.249Z,99106.00
2022-12-14T20:08:38.415Z,99104.00
2022-12-14T20:11:11.498Z,99100.00
2022-12-14T20:13:39.416Z,99106.00
2022-12-14T20:16:06.896Z,99068.00
2022-12-14T20:18:34.040Z,99103.00
2022-12-14T20:21:07.635Z,99107.00
2022-12-14T20:23:36.652Z,99112.00
2022-12-14T20:26:14.927Z,99102.00
2022-12-14T20:28:42.610Z,99098.00
2022-12-14T20:31:10.982Z,99091.00
2022-12-14T20:33:40.778Z,99098.00
2022-12-14T20:36:08.605Z,99085.00
2022-12-14T20:38:35.673Z,99092.00
2022-12-14T20:41:12.572Z,99089.00
2022-12-14T20:43:43.127Z,99088.00
2022-12-14T20:46:35.292Z,99091.00
2022-12-14T20:49:10.350Z,99077.00
2022-12-14T20:51:39.404Z,99095.00
2022-12-14T20:54:12.905Z,99085.00
2022-12-14T20:56:40.996Z,99093.00
2022-12-14T20:59:09.144Z,99092.00
2022-12-14T21:01:38.206Z,99052.00
2022-12-14T21:04:06.118Z,99090.00
2022-12-14T21:06:37.921Z,99095.00
2022-12-14T21:09:05.730Z,99083.00
2022-12-14T21:12:03.526Z,99092.00
2022-12-14T21:14:39.375Z,99087.00
2022-12-14T21:17:06.904Z,99069.00
2022-12-14T21:19:36.064Z,99092.00
2022-12-14T21:22:06.009Z,99071.00
2022-12-14T21:27:25.852Z,99087.00
2022-12-14T21:29:54.055Z,99077.00
2022-12-14T21:32:22.417Z,99082.00
2022-12-14T21:34:49.874Z,99078.00
2022-12-14T21:37:18.212Z,99072.00
2022-12-14T21:39:52.200Z,99080.00
2022-12-14T21:42:23.576Z,99084.00
2022-12-14T21:44:52.751Z,99080.00
2022-12-14T21:47:29.492Z,99091.00
2022-12-14T21:49:57.148Z,99076.00
2022-12-14T21:52:27.763Z,99080.00
2022-12-14T21:54:55.550Z,99049.00
2022-12-14T21:57:49.447Z,99067.00
2022-12-14T22:00:18.749Z,99072.00
2022-12-14T22:02:45.890Z,99080.00
2022-12-14T22:05:13.139Z,99072.00
2022-12-14T22:07:40.269Z,99070.00
2022-12-14T22:10:08.248Z,99068.00
2022-12-14T22:12:35.417Z,99057.00
2022-12-14T22:15:02.473Z,99053.00
2022-12-14T22:17:33.190Z,99043.00
2022-12-14T22:20:00.294Z,99049.00
2022-12-14T22:22:28.242Z,99037.00
2022-12-14T22:24:55.798Z,99036.00
2022-12-14T22:27:23.013Z,99037.00
2022-12-14T22:29:50.306Z,99049.00
2022-12-14T22:32:17.553Z,99021.00
2022-12-14T22:34:45.160Z,99032.00
2022-12-14T22:37:16.760Z,99037.00
2022-12-14T22:39:43.959Z,99026.00
2022-12-14T22:42:14.864Z,99016.00
2022-12-14T22:44:41.888Z,99018.00
2022-12-14T22:47:08.863Z,99002.00
2022-12-14T22:49:35.775Z,99006.00
2022-12-14T22:52:02.789Z,98996.00
2022-12-14T22:54:30.306Z,99006.00
2022-12-14T22:57:06.250Z,99002.00
2022-12-14T22:59:51.619Z,98993.00
2022-12-14T23:02:18.805Z,98997.00
2022-12-14T23:04:45.957Z,98991.00
2022-12-14T23:07:17.506Z,98979.00
2022-12-14T23:10:03.306Z,98976.00
2022-12-14T23:12:48.778Z,98984.00
2022-12-14T23:15:34.229Z,98978.00
2022-12-14T23:18:25.729Z,98984.00
2022-12-14T23:21:12.285Z,98985.00
2022-12-14T23:24:01.306Z,98988.00
2022-12-14T23:26:47.179Z,98978.00
2022-12-14T23:29:33.354Z,99000.00
2022-12-14T23:32:19.071Z,98993.00
2022-12-14T23:35:04.728Z,98992.00
2022-12-14T23:37:53.277Z,98982.00
2022-12-14T23:40:38.910Z,98978.00
2022-12-14T23:43:28.830Z,98993.00
2022-12-14T23:46:15.048Z,98984.00
2022-12-14T23:49:00.646Z,98988.00
2022-12-14T23:51:46.562Z,98964.00
2022-12-14T23:54:32.846Z,98974.00
2022-12-14T23:57:18.214Z,98976.00
